• Join FlightAware (Why Join?)
  • Login
  • US Flag 
10:34PM EDT


 

Airport Tracker/Info


-or-


 

Live Flight TrackerFlight Track Log ✈ RPA3228 ✈ 23-Apr-2013 ✈ KDCA - KBTV

Flight Track Log - Related Links

Times and Time Zones

All times are in EDT time to prevent confusion due to time zone crossing. See the RPA3228 flight status page for this flight to view local times or setup timezone preferences in your user account.

Time Position Orientation Groundspeed Altitude Reporting Facility
EDT Latitude Longitude Course Direction KTS MPH feet Rate Location/Type
10:26AM 38.8753 -77.0583 90° East 187 215 1,600  Level Washington Center
10:27AM 38.9164 -77.1044 319° Northwest 184 212 3,600 2,400 Climbing Washington Center
10:28AM 38.9697 -77.1614 320° Northwest 220 253 6,400 2,700 Climbing Washington Center
10:29AM 39.0228 -76.5482 67° East  Level FlightAware Approximate
10:29AM 39.0283 -77.1442 13° North 199 229 9,000  Level Washington Center
10:30AM 39.0699 -76.4258 61° Northeast  Level FlightAware Approximate
10:30AM 39.0486 -77.0375 76° East 205 236 11,100  Level Washington Center
10:31AM 39.1167 -76.3046 90° East  Level FlightAware Approximate
10:31AM 39.0622 -76.9228 81° East 256 295 13,300  Level Washington Center
10:32AM 39.0783 -76.7947 81° East 314 361 15,000 1,800 Climbing Washington Center
10:33AM 39.0942 -76.6614 81° East 346 398 17,000 1,620 Climbing Washington Center
10:34AM 39.1119 -76.5278 80° East 362 417 18,300 1,380 Climbing Washington Center
10:35AM 39.1275 -76.3889 82° East 380 437 19,800 1,380 Climbing Washington Center
10:36AM 39.1450 -76.2419 81° East 394 453 21,100 1,200 Climbing Washington Center
10:37AM 39.1664 -76.1136 78° East 408 470 22,200 900 Climbing Washington Center
10:38AM 39.1836 -75.9611 82° East 413 475 23,000 1,140 Climbing Washington Center
10:39AM 39.2342 -75.8219 65° Northeast 423 487 24,500 1,560 Climbing Washington Center
10:40AM 39.3217 -75.7150 43° Northeast 418 481 26,200 1,440 Climbing Washington Center
10:41AM 39.4094 -75.6022 45° Northeast 423 487 27,400 1,200 Climbing Washington Center
10:42AM 39.4989 -75.4867 45° Northeast 439 505 28,600 1,320 Climbing Washington Center
10:43AM 39.5903 -75.3653 46° Northeast 455 524 30,100 1,560 Climbing Washington Center
10:44AM 39.6797 -75.2464 46° Northeast 460 529 31,800 1,440 Climbing Washington Center
10:45AM 39.7667 -75.1189 48° Northeast 462 532 32,900 600 Climbing New York Center
10:46AM 39.8544 -74.9919 48° Northeast 467 537 33,000  Climbing New York Center
10:47AM 39.9400 -74.8725 47° Northeast 467 537 33,000  Level New York Center
10:48AM 40.0189 -74.7606 47° Northeast 467 537 33,000  Level New York Center
10:49AM 40.1133 -74.6222 48° Northeast 461 531 33,000  Level New York Center
10:50AM 40.1939 -74.5100 47° Northeast 461 531 33,000  Level New York Center
10:51AM 40.2933 -74.3983 41° Northeast 466 536 33,000  Level New York Center
10:52AM 40.3989 -74.2894 38° Northeast 466 536 33,000  Level New York Center
10:53AM 40.5000 -74.1800 39° Northeast 472 543 33,000  Level New York Center
10:54AM 40.5725 -74.0414 55° Northeast 451 519 33,000  Level New York Center
10:55AM 40.6247 -73.8908 65° Northeast 437 503 33,000  Level New York Center
10:57AM 40.9250 -73.7917 14° North 462 532 33,000  Level Boston Center
10:58AM 41.0750 -73.7947 359° North 474 545 33,000  Level Boston Center
10:59AM 41.2189 -73.7922 North 494 568 33,000  Level Boston Center
11:00AM 41.3589 -73.7675 North 499 574 33,000  Level Boston Center
11:01AM 41.4989 -73.7428 North 499 574 33,000  Level Boston Center
11:02AM 41.6367 -73.7150 North 499 574 33,000  Level Boston Center
11:03AM 41.7850 -73.6875 North 504 580 33,000  Level Boston Center
11:04AM 41.9250 -73.6594 North 499 574 33,000  Level Boston Center
11:05AM 42.0647 -73.6369 North 499 574 33,000  Level Boston Center
11:06AM 42.2028 -73.6089 North 499 574 33,000  Level Boston Center
11:07AM 42.3406 -73.5833 North 499 574 33,000  Level Boston Center
11:08AM 42.4803 -73.5578 North 499 574 33,000  Level Boston Center
11:09AM 42.6181 -73.5292 North 499 574 33,000  Level Boston Center
11:10AM 42.7581 -73.5006 North 499 574 33,000  Level Boston Center
11:11AM 42.8731 -73.4769 North 499 574 33,000 -300 Level Boston Center
11:12AM 43.0128 -73.4481 North 494 568 32,400 -1,380 Descending Boston Center
11:13AM 43.1631 -73.4164 North 494 568 30,300 -2,100 Descending Boston Center
11:14AM 43.2989 -73.3900 North 499 574 28,300 -2,040 Descending Boston Center
11:15AM 43.4283 -73.3664 North 483 556 26,300 -2,040 Descending Boston Center
11:16AM 43.5472 -73.3425 North 456 525 24,300 -1,200 Descending Boston Center
11:17AM 43.6578 -73.3183 North 422 486 24,000 -240 Descending Boston Center
11:18AM 43.7664 -73.2967 North 403 464 23,900 -900 Descending Boston Center
11:19AM 43.8750 -73.2753 North 403 464 22,200 -2,280 Descending Boston Center
11:20AM 43.9814 -73.2536 North 387 445 19,400 -2,580 Descending Boston Center
11:21AM 44.0794 -73.2347 North 374 430 17,100 -2,400 Descending Boston Center
11:22AM 44.1711 -73.2447 356° North 333 383 14,700 -2,280 Descending Boston Center
11:23AM 44.2519 -73.2981 335° Northwest 322 371 12,600 -2,220 Descending Boston Center
11:24AM 44.3286 -73.3425 337° Northwest 311 358 10,300 -2,580 Descending Boston Center
11:25AM 44.4011 -73.3903 335° Northwest 300 345 7,500 -2,520 Descending Boston Center
11:26AM 44.4783 -73.3886 North 269 310 5,300 -1,920 Descending Boston Center
11:27AM 44.5389 -73.3486 25° Northeast 250 288 3,700 -1,320 Descending Boston Center
11:28AM 44.5519 -73.2850 74° East 171 197 2,700 -1,020 Descending Boston Center